Time;durP1;ratioP1;P1;durP2;ratioP2;P2;SDS_P1;SDS_P2;PMS_P1;PMS_P2;Temp;Humidity;BMP_temperature;BMP_pressure;BME280_temperature;BME280_humidity;BME280_pressure;Samples;Min_cycle;Max_cycle;Signal;HPM_P1;HPM_P2
2023/09/18 00:01:59;;;;;;;;;;;;;;;18.27;100.00;100619.41;5029921;28;20312;-72
2023/09/18 00:04:24;;;;;;;;;;;;;;;18.21;100.00;100607.34;5031033;28;20334;-72
2023/09/18 00:06:49;;;;;;;;;;;;;;;18.17;100.00;100607.88;5031526;28;20651;-72
2023/09/18 00:09:15;;;;;;;;;;;;;;;18.14;100.00;100600.94;5034323;28;20386;-72
2023/09/18 00:11:40;;;;;;;;;;;;;;;18.17;100.00;100589.72;5027531;28;20398;-72
2023/09/18 00:14:05;;;;;;;;;;;;;;;18.17;100.00;100578.00;5031916;28;19925;-71
2023/09/18 00:16:32;;;;;;;;;;;;;;;18.17;100.00;100572.56;5034199;28;19966;-71
2023/09/18 00:18:57;;;;;;;;;;;;;;;18.17;100.00;100572.56;5038863;28;19968;-72
2023/09/18 00:21:25;;;;;;;;;;;;;;;18.11;100.00;100574.13;5032924;28;20007;-72
2023/09/18 00:23:50;;;;;;;;;;;;;;;18.10;100.00;100567.84;5033274;28;19958;-71
2023/09/18 00:26:15;;;;;;;;;;;;;;;18.17;100.00;100567.13;5030400;28;19925;-72
2023/09/18 00:28:40;;;;;;;;;;;;;;;18.13;100.00;100556.63;5041340;28;20535;-72
2023/09/18 00:31:06;;;;;;;;;;;;;;;18.13;100.00;100569.38;5026890;28;19960;-72
2023/09/18 00:33:31;;;;;;;;;;;;;;;18.03;100.00;100536.13;5025882;28;19929;-71
2023/09/18 00:35:56;;;;;;;;;;;;;;;18.17;100.00;100551.66;5029923;28;19925;-72
2023/09/18 00:38:21;;;;;;;;;;;;;;;18.16;100.00;100551.84;5026884;28;19967;-72
2023/09/18 00:40:47;;;;;;;;;;;;;;;18.13;100.00;100536.78;5026895;28;20023;-71
2023/09/18 00:43:12;;;;;;;;;;;;;;;18.20;100.00;100536.91;5028578;28;20366;-72
2023/09/18 00:45:41;;;;;;;;;;;;;;;18.20;100.00;100543.16;5028800;28;20165;-71
2023/09/18 00:48:06;;;;;;;;;;;;;;;18.24;100.00;100530.94;5039800;28;19928;-71
2023/09/18 00:50:32;;;;;;;;;;;;;;;18.29;100.00;100523.09;5024814;28;19921;-71
2023/09/18 00:52:57;;;;;;;;;;;;;;;18.28;100.00;100515.97;5027844;28;19964;-72
2023/09/18 00:55:22;;;;;;;;;;;;;;;18.31;100.00;100514.75;5030468;28;20313;-71
2023/09/18 00:57:48;;;;;;;;;;;;;;;18.36;100.00;100514.22;5039625;28;19928;-71
2023/09/18 01:00:16;;;;;;;;;;;;;;;18.34;100.00;100508.13;5033795;28;19970;-71
2023/09/18 01:02:42;;;;;;;;;;;;;;;18.38;100.00;100490.44;5042791;28;19923;-72
2023/09/18 01:05:07;;;;;;;;;;;;;;;18.38;100.00;100488.56;5042817;28;19924;-71
2023/09/18 01:07:32;;;;;;;;;;;;;;;18.40;100.00;100489.22;5031544;28;19925;-72
2023/09/18 01:09:58;;;;;;;;;;;;;;;18.38;100.00;100488.56;5032958;28;19925;-73
2023/09/18 01:12:30;;;;;;;;;;;;;;;18.48;100.00;100476.63;5029098;28;19963;-72
2023/09/18 01:15:06;;;;;;;;;;;;;;;18.50;100.00;100480.84;5043909;28;19925;-72
2023/09/18 01:17:36;;;;;;;;;;;;;;;18.52;100.00;100472.50;5025225;28;19947;-72
2023/09/18 01:20:02;;;;;;;;;;;;;;;18.54;100.00;100457.69;5042993;28;20399;-72
2023/09/18 01:22:29;;;;;;;;;;;;;;;18.57;100.00;100442.88;5028844;28;19931;-72
2023/09/18 01:24:54;;;;;;;;;;;;;;;18.62;100.00;100443.19;5041588;28;19924;-72
2023/09/18 01:27:19;;;;;;;;;;;;;;;18.61;100.00;100448.81;5032439;28;19925;-72
2023/09/18 01:29:45;;;;;;;;;;;;;;;18.59;100.00;100443.56;5037859;28;19920;-72
2023/09/18 01:32:10;;;;;;;;;;;;;;;18.62;100.00;100440.47;5030606;28;19928;-72
2023/09/18 01:34:52;;;;;;;;;;;;;;;18.59;100.00;100438.13;5030359;28;19917;-72
2023/09/18 01:37:20;;;;;;;;;;;;;;;18.54;100.00;100440.56;5026443;28;19917;-72
2023/09/18 01:39:46;;;;;;;;;;;;;;;18.55;100.00;100434.06;5037611;28;20379;-72
2023/09/18 01:42:11;;;;;;;;;;;;;;;18.57;100.00;100435.59;5031050;28;19928;-72
2023/09/18 01:44:39;;;;;;;;;;;;;;;18.53;100.00;100434.25;5029764;28;19931;-72
2023/09/18 01:47:06;;;;;;;;;;;;;;;18.54;100.00;100427.81;5027810;28;19959;-72
2023/09/18 01:49:35;;;;;;;;;;;;;;;18.56;100.00;100428.47;5028639;28;20379;-72
2023/09/18 01:52:00;;;;;;;;;;;;;;;18.63;100.00;100435.91;5039852;28;19963;-72
2023/09/18 01:54:26;;;;;;;;;;;;;;;18.59;100.00;100441.69;5034210;28;19921;-72
2023/09/18 01:56:51;;;;;;;;;;;;;;;18.61;100.00;100437.94;5029398;28;19917;-73
2023/09/18 01:59:17;;;;;;;;;;;;;;;18.58;100.00;100434.56;5023164;28;19928;-72
2023/09/18 02:01:43;;;;;;;;;;;;;;;18.51;100.00;100432.75;5045820;28;20088;-72
2023/09/18 02:04:08;;;;;;;;;;;;;;;18.52;100.00;100424.41;5031868;28;20271;-73
2023/09/18 02:06:33;;;;;;;;;;;;;;;18.54;100.00;100419.66;5032065;28;19927;-72
2023/09/18 02:08:58;;;;;;;;;;;;;;;18.54;100.00;100433.22;5029892;28;19920;-72
2023/09/18 02:11:24;;;;;;;;;;;;;;;18.59;100.00;100427.25;5025647;28;19987;-72
2023/09/18 02:13:49;;;;;;;;;;;;;;;18.57;100.00;100423.84;5028448;28;19932;-72
2023/09/18 02:16:14;;;;;;;;;;;;;;;18.54;100.00;100433.22;5042240;28;19928;-72
2023/09/18 02:18:40;;;;;;;;;;;;;;;18.55;100.00;100425.91;5029409;28;20293;-71
2023/09/18 02:21:05;;;;;;;;;;;;;;;18.55;100.00;100415.91;5029635;28;20364;-72
2023/09/18 02:23:30;;;;;;;;;;;;;;;18.57;100.00;100412.97;5028509;28;20383;-72
2023/09/18 02:25:56;;;;;;;;;;;;;;;18.60;100.00;100412.63;5045857;28;20395;-71
2023/09/18 02:28:21;;;;;;;;;;;;;;;18.60;100.00;100409.91;5032297;28;19924;-71
2023/09/18 02:30:46;;;;;;;;;;;;;;;18.61;100.00;100400.72;5030217;28;19920;-72
2023/09/18 02:33:11;;;;;;;;;;;;;;;18.67;100.00;100394.56;5032793;28;19916;-72
2023/09/18 02:35:37;;;;;;;;;;;;;;;18.70;100.00;100379.72;5024331;28;20251;-72
2023/09/18 02:38:02;;;;;;;;;;;;;;;18.70;100.00;100374.28;5028276;28;19982;-72
2023/09/18 02:40:28;;;;;;;;;;;;;;;18.70;100.00;100380.59;5030994;28;19967;-71
2023/09/18 02:42:53;;;;;;;;;;;;;;;18.67;100.00;100375.53;5030342;28;20023;-72
2023/09/18 02:45:18;;;;;;;;;;;;;;;18.70;100.00;100361.56;5032762;28;19925;-72
2023/09/18 02:47:43;;;;;;;;;;;;;;;18.72;100.00;100358.66;5028892;28;19921;-72
2023/09/18 02:50:10;;;;;;;;;;;;;;;18.73;100.00;100357.63;5031311;28;19921;-72
2023/09/18 02:52:35;;;;;;;;;;;;;;;18.72;100.00;100339.59;5027884;28;19921;-72
2023/09/18 02:55:01;;;;;;;;;;;;;;;18.73;100.00;100335.88;5030883;28;20243;-71
2023/09/18 02:57:26;;;;;;;;;;;;;;;18.70;100.00;100314.47;5026820;28;19960;-71
2023/09/18 02:59:51;;;;;;;;;;;;;;;18.69;100.00;100312.78;5022622;28;21049;-71
2023/09/18 03:02:17;;;;;;;;;;;;;;;18.64;100.00;100309.81;5028956;28;19960;-71
2023/09/18 03:04:42;;;;;;;;;;;;;;;18.56;100.00;100308.00;5031103;28;19964;-71
2023/09/18 03:07:07;;;;;;;;;;;;;;;18.51;100.00;100305.00;5027572;28;20045;-72
2023/09/18 03:09:32;;;;;;;;;;;;;;;18.48;100.00;100291.78;5024307;28;20302;-71
2023/09/18 03:11:57;;;;;;;;;;;;;;;18.48;100.00;100287.19;5027934;28;20517;-71
2023/09/18 03:14:23;;;;;;;;;;;;;;;18.43;100.00;100301.34;5031079;28;20314;-72
2023/09/18 03:16:48;;;;;;;;;;;;;;;18.33;100.00;100298.03;5026672;28;20582;-72
2023/09/18 03:19:13;;;;;;;;;;;;;;;18.31;100.00;100299.25;5040154;28;20371;-72
2023/09/18 03:21:39;;;;;;;;;;;;;;;18.24;100.00;100310.00;5030164;28;19921;-73
2023/09/18 03:24:04;;;;;;;;;;;;;;;18.17;100.00;100307.16;5027072;28;20263;-73
2023/09/18 03:26:29;;;;;;;;;;;;;;;18.24;100.00;100316.28;5036184;28;19943;-72
2023/09/18 03:28:54;;;;;;;;;;;;;;;18.24;100.00;100294.53;5034255;28;19921;-72
2023/09/18 03:31:20;;;;;;;;;;;;;;;18.37;100.00;100295.78;5033093;28;20399;-72
2023/09/18 03:33:46;;;;;;;;;;;;;;;18.41;100.00;100308.81;5036560;28;20419;-74
2023/09/18 03:36:11;;;;;;;;;;;;;;;18.36;100.00;100311.25;5038446;28;20033;-73
2023/09/18 03:38:36;;;;;;;;;;;;;;;18.48;100.00;100305.38;5037425;28;19913;-73
2023/09/18 03:41:02;;;;;;;;;;;;;;;18.61;100.00;100291.97;5037088;28;19936;-71
2023/09/18 03:43:27;;;;;;;;;;;;;;;18.63;100.00;100287.19;5037864;28;19917;-73
2023/09/18 03:45:52;;;;;;;;;;;;;;;18.71;100.00;100302.56;5034890;28;19959;-72
2023/09/18 03:48:17;;;;;;;;;;;;;;;18.65;100.00;100293.28;5037245;28;20952;-73
2023/09/18 03:50:42;;;;;;;;;;;;;;;18.68;100.00;100287.50;5042289;28;20011;-73
2023/09/18 03:53:10;;;;;;;;;;;;;;;18.77;100.00;100285.53;5036905;28;20015;-72
2023/09/18 03:55:35;;;;;;;;;;;;;;;18.70;100.00;100298.16;5030562;28;19928;-72
2023/09/18 03:58:00;;;;;;;;;;;;;;;18.68;100.00;100313.81;5031391;28;19925;-71
2023/09/18 04:00:25;;;;;;;;;;;;;;;18.74;100.00;100303.06;5039302;28;19925;-73
2023/09/18 04:02:51;;;;;;;;;;;;;;;18.73;100.00;100297.78;5037896;28;19920;-72
2023/09/18 04:05:16;;;;;;;;;;;;;;;18.78;100.00;100297.25;5036954;28;20426;-72
2023/09/18 04:07:45;;;;;;;;;;;;;;;18.79;100.00;100302.50;5037223;28;20515;-72
2023/09/18 04:10:15;;;;;;;;;;;;;;;18.83;100.00;100305.66;5034746;28;19974;-73
2023/09/18 04:12:40;;;;;;;;;;;;;;;18.89;100.00;100305.78;5035403;28;20043;-72
2023/09/18 04:15:06;;;;;;;;;;;;;;;18.95;100.00;100293.34;5036537;28;20023;-73
2023/09/18 04:17:31;;;;;;;;;;;;;;;18.92;100.00;100287.41;5035801;28;19943;-74
2023/09/18 04:19:56;;;;;;;;;;;;;;;19.08;100.00;100278.22;5048831;28;20351;-74
2023/09/18 04:22:22;;;;;;;;;;;;;;;19.11;100.00;100264.22;5044192;28;20450;-73
2023/09/18 04:24:47;;;;;;;;;;;;;;;19.11;100.00;100253.34;5030204;28;19921;-73
2023/09/18 04:27:12;;;;;;;;;;;;;;;19.10;100.00;100259.81;5037342;28;19956;-74
2023/09/18 04:29:37;;;;;;;;;;;;;;;19.24;100.00;100269.84;5036584;28;20011;-75
2023/09/18 04:32:04;;;;;;;;;;;;;;;19.27;100.00;100264.03;5030987;28;19920;-72
2023/09/18 04:34:29;;;;;;;;;;;;;;;19.26;100.00;100281.41;5033322;28;19928;-73
2023/09/18 04:36:54;;;;;;;;;;;;;;;19.21;100.00;100299.31;5032814;28;19999;-72
2023/09/18 04:39:19;;;;;;;;;;;;;;;19.18;100.00;100290.50;5032296;28;20070;-73
2023/09/18 04:41:45;;;;;;;;;;;;;;;19.16;100.00;100289.00;5030210;28;19975;-72
2023/09/18 04:44:12;;;;;;;;;;;;;;;19.18;100.00;100286.94;5034732;28;19925;-71
2023/09/18 04:46:37;;;;;;;;;;;;;;;19.11;100.00;100272.41;5031714;28;20008;-71
2023/09/18 04:49:03;;;;;;;;;;;;;;;19.01;100.00;100259.09;5041306;28;19927;-72
2023/09/18 04:51:29;;;;;;;;;;;;;;;18.99;100.00;100259.28;5029331;28;20015;-72
2023/09/18 04:53:54;;;;;;;;;;;;;;;18.97;100.00;100236.00;5030685;28;20447;-72
2023/09/18 04:56:20;;;;;;;;;;;;;;;19.00;100.00;100232.91;5042205;28;19920;-71
2023/09/18 04:58:45;;;;;;;;;;;;;;;18.88;100.00;100243.41;5032447;28;19921;-71
2023/09/18 05:01:11;;;;;;;;;;;;;;;18.86;100.00;100240.03;5035352;28;20008;-73
2023/09/18 05:03:36;;;;;;;;;;;;;;;18.80;100.00;100238.91;5031302;28;19955;-71
2023/09/18 05:06:02;;;;;;;;;;;;;;;18.90;100.00;100225.03;5030485;28;19917;-71
2023/09/18 05:08:28;;;;;;;;;;;;;;;18.88;100.00;100224.38;5041734;28;20375;-71
2023/09/18 05:10:53;;;;;;;;;;;;;;;18.82;100.00;100233.28;5032345;28;19920;-72
2023/09/18 05:13:18;;;;;;;;;;;;;;;18.83;100.00;100215.94;5044864;28;19967;-72
2023/09/18 05:15:43;;;;;;;;;;;;;;;18.84;100.00;100218.47;5045609;28;20011;-73
2023/09/18 05:18:09;;;;;;;;;;;;;;;18.86;100.00;100215.56;5039637;28;19924;-71
2023/09/18 05:20:34;;;;;;;;;;;;;;;18.85;100.00;100212.00;5036406;28;20394;-71
2023/09/18 05:23:00;;;;;;;;;;;;;;;18.89;100.00;100217.91;5034510;28;19978;-71
2023/09/18 05:25:26;;;;;;;;;;;;;;;18.92;100.00;100217.53;5028728;28;19977;-71
2023/09/18 05:27:57;;;;;;;;;;;;;;;18.80;100.00;100230.75;5027683;28;20377;-72
2023/09/18 05:30:34;;;;;;;;;;;;;;;18.76;100.00;100234.06;5035304;28;20063;-71
2023/09/18 05:33:05;;;;;;;;;;;;;;;18.80;100.00;100228.03;5044864;28;19928;-71
2023/09/18 05:35:34;;;;;;;;;;;;;;;18.78;100.00;100232.81;5031508;28;19920;-71
2023/09/18 05:37:59;;;;;;;;;;;;;;;18.76;100.00;100242.22;5035136;28;19921;-71
2023/09/18 05:40:26;;;;;;;;;;;;;;;18.75;100.00;100254.94;5030415;28;19925;-71
2023/09/18 05:42:53;;;;;;;;;;;;;;;18.73;100.00;100259.72;5034095;28;19921;-71
2023/09/18 05:45:19;;;;;;;;;;;;;;;18.79;100.00;100261.69;5032008;28;19924;-71
2023/09/18 05:47:44;;;;;;;;;;;;;;;18.75;100.00;100265.81;5032235;28;20341;-71
2023/09/18 05:50:09;;;;;;;;;;;;;;;18.78;100.00;100270.06;5036632;28;19964;-71
2023/09/18 05:52:35;;;;;;;;;;;;;;;18.78;100.00;100289.09;5039458;28;20023;-72
2023/09/18 05:55:01;;;;;;;;;;;;;;;18.73;100.00;100284.19;5041994;28;19964;-73
2023/09/18 05:57:29;;;;;;;;;;;;;;;18.79;100.00;100266.31;5032904;28;19924;-72
2023/09/18 05:59:55;;;;;;;;;;;;;;;18.72;100.00;100294.25;5030557;28;20361;-71
2023/09/18 06:02:20;;;;;;;;;;;;;;;18.75;100.00;100298.44;5035206;28;20398;-73
2023/09/18 06:04:46;;;;;;;;;;;;;;;18.80;100.00;100277.00;5034720;28;19920;-72
2023/09/18 06:07:12;;;;;;;;;;;;;;;18.80;100.00;100284.31;5049608;28;20224;-71
2023/09/18 06:09:38;;;;;;;;;;;;;;;18.77;100.00;100281.97;5031644;28;19921;-72
2023/09/18 06:12:04;;;;;;;;;;;;;;;18.81;100.00;100283.25;5033326;28;20114;-73
2023/09/18 06:14:30;;;;;;;;;;;;;;;18.86;100.00;100284.41;5032020;28;19920;-72
2023/09/18 06:16:55;;;;;;;;;;;;;;;18.88;100.00;100286.91;5038604;28;19927;-72
2023/09/18 06:19:21;;;;;;;;;;;;;;;18.88;100.00;100303.25;5033444;28;19924;-73
2023/09/18 06:21:46;;;;;;;;;;;;;;;18.91;100.00;100315.63;5030961;28;20775;-73
2023/09/18 06:24:12;;;;;;;;;;;;;;;18.93;100.00;100308.13;5030345;28;20119;-71
2023/09/18 06:26:37;;;;;;;;;;;;;;;18.91;100.00;100312.91;5035586;28;20283;-73
2023/09/18 06:29:03;;;;;;;;;;;;;;;18.91;100.00;100304.75;5033520;28;19925;-71
2023/09/18 06:31:28;;;;;;;;;;;;;;;18.85;100.00;100309.06;5032710;28;19928;-72
2023/09/18 06:33:53;;;;;;;;;;;;;;;18.84;100.00;100310.09;5019153;28;20066;-74
2023/09/18 06:36:19;;;;;;;;;;;;;;;18.84;100.00;100310.94;5034953;28;19933;-72
2023/09/18 06:38:44;;;;;;;;;;;;;;;18.86;100.00;100319.75;5029740;28;20230;-72
2023/09/18 06:41:09;;;;;;;;;;;;;;;18.89;100.00;100315.81;5028519;28;19960;-72
2023/09/18 06:43:34;;;;;;;;;;;;;;;18.82;100.00;100314.84;5029345;28;19927;-72
2023/09/18 06:46:00;;;;;;;;;;;;;;;18.84;100.00;100310.94;5034727;28;20012;-72
2023/09/18 06:48:25;;;;;;;;;;;;;;;18.84;100.00;100312.81;5030194;28;19925;-72
2023/09/18 06:50:50;;;;;;;;;;;;;;;18.78;100.00;100313.56;5028183;28;19927;-74
2023/09/18 06:53:16;;;;;;;;;;;;;;;18.84;100.00;100331.84;5030192;28;20011;-74
2023/09/18 06:55:41;;;;;;;;;;;;;;;18.86;100.00;100333.34;5030761;28;20107;-73
2023/09/18 06:58:06;;;;;;;;;;;;;;;18.85;100.00;100336.25;5038194;28;19921;-73
2023/09/18 07:00:31;;;;;;;;;;;;;;;18.90;100.00;100336.53;5029160;28;19925;-73
2023/09/18 07:02:57;;;;;;;;;;;;;;;18.93;100.00;100332.63;5048935;28;19929;-72
2023/09/18 07:05:22;;;;;;;;;;;;;;;18.97;100.00;100342.09;5030904;28;19927;-73
2023/09/18 07:07:48;;;;;;;;;;;;;;;19.00;100.00;100325.41;5041977;28;19932;-72
2023/09/18 07:10:13;;;;;;;;;;;;;;;19.03;100.00;100325.91;5029853;28;20011;-72
2023/09/18 07:12:39;;;;;;;;;;;;;;;19.02;100.00;100340.53;5038548;28;19920;-73
2023/09/18 07:15:04;;;;;;;;;;;;;;;19.07;100.00;100325.53;5030451;28;19913;-74
2023/09/18 07:17:29;;;;;;;;;;;;;;;19.05;100.00;100313.97;5027308;28;19920;-73
2023/09/18 07:19:55;;;;;;;;;;;;;;;19.01;100.00;100300.75;5029763;28;19925;-71
2023/09/18 07:22:22;;;;;;;;;;;;;;;18.97;100.00;100318.47;5031234;28;20311;-72
2023/09/18 07:24:47;;;;;;;;;;;;;;;18.98;100.00;100322.03;5031735;28;20315;-73
2023/09/18 07:27:12;;;;;;;;;;;;;;;18.92;100.00;100310.00;5033219;28;19961;-75
2023/09/18 07:29:38;;;;;;;;;;;;;;;19.03;100.00;100316.88;5044955;28;19964;-73
2023/09/18 07:32:04;;;;;;;;;;;;;;;18.93;100.00;100324.47;5033888;28;19956;-72
2023/09/18 07:34:29;;;;;;;;;;;;;;;18.97;100.00;100328.50;5032723;28;20408;-73
2023/09/18 07:36:55;;;;;;;;;;;;;;;18.93;100.00;100336.16;5036633;28;19964;-74
2023/09/18 07:39:20;;;;;;;;;;;;;;;18.91;100.00;100340.13;5031618;28;20527;-72
2023/09/18 07:41:47;;;;;;;;;;;;;;;18.89;100.00;100338.44;5026350;28;20007;-72
2023/09/18 07:44:12;;;;;;;;;;;;;;;18.93;100.00;100335.34;5030725;28;19921;-71
2023/09/18 07:46:38;;;;;;;;;;;;;;;18.92;100.00;100352.69;5030055;28;19921;-73
2023/09/18 07:49:03;;;;;;;;;;;;;;;18.94;100.00;100342.44;5030633;28;19927;-72
2023/09/18 07:51:29;;;;;;;;;;;;;;;18.95;100.00;100336.84;5032627;28;19921;-75
2023/09/18 07:53:55;;;;;;;;;;;;;;;18.95;100.00;100333.25;5033905;28;19942;-75
2023/09/18 07:56:20;;;;;;;;;;;;;;;18.92;100.00;100328.22;5020730;28;20363;-72
2023/09/18 07:58:46;;;;;;;;;;;;;;;18.97;100.00;100344.81;5016540;28;20659;-72
2023/09/18 08:01:12;;;;;;;;;;;;;;;18.98;100.00;100352.81;5028550;28;19925;-71
2023/09/18 08:03:37;;;;;;;;;;;;;;;19.05;100.00;100357.50;5032660;28;19928;-71
2023/09/18 08:06:04;;;;;;;;;;;;;;;19.11;100.00;100349.44;5044558;28;19954;-73
2023/09/18 08:08:30;;;;;;;;;;;;;;;19.10;100.00;100342.31;5029675;28;19928;-73
2023/09/18 08:10:55;;;;;;;;;;;;;;;19.04;100.00;100348.50;5034207;28;19963;-72
2023/09/18 08:13:21;;;;;;;;;;;;;;;18.86;100.00;100316.19;5043232;28;19999;-73
2023/09/18 08:15:46;;;;;;;;;;;;;;;19.04;100.00;100345.78;5034448;28;19924;-72
2023/09/18 08:18:13;;;;;;;;;;;;;;;18.96;100.00;100345.84;5043898;28;19964;-72
2023/09/18 08:20:42;;;;;;;;;;;;;;;18.93;100.00;100325.28;5027718;28;19925;-71
2023/09/18 08:23:07;;;;;;;;;;;;;;;19.00;100.00;100339.00;5039604;28;20012;-73
2023/09/18 08:25:33;;;;;;;;;;;;;;;18.97;100.00;100347.53;5029228;28;19920;-70
2023/09/18 08:27:58;;;;;;;;;;;;;;;19.09;100.00;100339.75;5030303;28;20277;-75
2023/09/18 08:30:24;;;;;;;;;;;;;;;19.14;100.00;100340.91;5031407;28;19960;-74
2023/09/18 08:32:49;;;;;;;;;;;;;;;19.05;100.00;100350.19;5028656;28;19944;-71
2023/09/18 08:35:14;;;;;;;;;;;;;;;19.31;100.00;100357.00;5015375;28;20026;-73
2023/09/18 08:37:40;;;;;;;;;;;;;;;19.42;100.00;100359.28;5026530;28;19920;-73
2023/09/18 08:40:09;;;;;;;;;;;;;;;19.42;100.00;100374.75;5044088;28;19925;-71
2023/09/18 08:42:35;;;;;;;;;;;;;;;19.35;100.00;100371.94;5024397;28;20779;-72
2023/09/18 08:45:00;;;;;;;;;;;;;;;19.40;100.00;100379.53;5038743;28;19921;-72
2023/09/18 08:47:25;;;;;;;;;;;;;;;19.30;100.00;100386.13;5028317;28;19956;-71
2023/09/18 08:49:50;;;;;;;;;;;;;;;19.37;100.00;100386.22;5025212;28;20347;-73
2023/09/18 08:52:16;;;;;;;;;;;;;;;19.31;100.00;100379.66;5028754;28;22720;-71
2023/09/18 08:54:42;;;;;;;;;;;;;;;19.33;100.00;100383.00;5027028;28;19937;-71
2023/09/18 08:57:07;;;;;;;;;;;;;;;19.40;100.00;100384.97;5028639;28;19961;-72
2023/09/18 08:59:33;;;;;;;;;;;;;;;19.41;100.00;100383.94;5034530;28;20359;-72
2023/09/18 09:01:58;;;;;;;;;;;;;;;19.33;100.00;100380.28;5031261;28;20205;-73
2023/09/18 09:04:24;;;;;;;;;;;;;;;19.29;100.00;100375.41;5029780;28;19928;-71
2023/09/18 09:06:49;;;;;;;;;;;;;;;19.39;100.00;100377.84;5031583;28;20066;-72
2023/09/18 09:09:15;;;;;;;;;;;;;;;19.55;100.00;100379.50;5041435;28;19971;-72
2023/09/18 09:11:40;;;;;;;;;;;;;;;19.67;100.00;100375.28;5032114;28;19921;-71
2023/09/18 09:14:17;;;;;;;;;;;;;;;19.55;100.00;100382.25;5029135;28;19960;-71
2023/09/18 09:16:47;;;;;;;;;;;;;;;19.56;100.00;100376.63;5033082;28;19917;-71
2023/09/18 09:19:12;;;;;;;;;;;;;;;19.68;100.00;100371.53;5044373;28;19932;-71
2023/09/18 09:21:38;;;;;;;;;;;;;;;19.58;100.00;100370.97;5026587;28;19925;-72
2023/09/18 09:24:03;;;;;;;;;;;;;;;19.95;100.00;100377.31;5033836;28;19925;-71
2023/09/18 09:26:29;;;;;;;;;;;;;;;20.17;100.00;100367.25;5031478;28;20319;-72
2023/09/18 09:28:55;;;;;;;;;;;;;;;20.35;100.00;100347.72;5026799;28;19959;-70
2023/09/18 09:31:27;;;;;;;;;;;;;;;20.56;100.00;100343.25;5035554;28;19999;-71
2023/09/18 09:33:53;;;;;;;;;;;;;;;20.72;100.00;100349.47;5034142;28;19917;-72
2023/09/18 09:36:18;;;;;;;;;;;;;;;20.82;100.00;100358.16;5043487;28;19928;-76
2023/09/18 09:38:44;;;;;;;;;;;;;;;20.90;100.00;100365.38;5027780;28;19952;-71
2023/09/18 09:41:11;;;;;;;;;;;;;;;21.00;100.00;100360.41;5035124;28;19966;-71
2023/09/18 09:43:36;;;;;;;;;;;;;;;21.08;100.00;100371.16;5040623;28;19933;-71
2023/09/18 09:46:02;;;;;;;;;;;;;;;21.05;100.00;100343.44;5034868;28;19921;-71
2023/09/18 09:48:27;;;;;;;;;;;;;;;21.37;100.00;100373.81;5035496;28;20391;-73
2023/09/18 09:50:56;;;;;;;;;;;;;;;21.76;100.00;100382.41;5047983;28;20347;-71
2023/09/18 09:53:41;;;;;;;;;;;;;;;21.70;100.00;100379.47;5039852;28;19928;-74
2023/09/18 09:56:06;;;;;;;;;;;;;;;21.42;100.00;100385.00;5036437;28;20328;-72
2023/09/18 09:58:32;;;;;;;;;;;;;;;21.47;100.00;100379.75;5037787;28;19920;-71
2023/09/18 10:00:59;;;;;;;;;;;;;;;21.65;100.00;100375.66;5039076;28;19920;-75
2023/09/18 10:03:24;;;;;;;;;;;;;;;22.23;100.00;100380.66;5031721;28;19920;-72
2023/09/18 10:05:53;;;;;;;;;;;;;;;22.44;100.00;100384.28;5040689;28;20383;-72
2023/09/18 10:08:23;;;;;;;;;;;;;;;22.44;100.00;100387.03;5031267;28;20001;-71
2023/09/18 10:10:49;;;;;;;;;;;;;;;22.75;100.00;100386.38;5037468;28;19925;-74
2023/09/18 10:13:18;;;;;;;;;;;;;;;22.49;100.00;100392.72;5036879;28;20307;-69
2023/09/18 10:15:44;;;;;;;;;;;;;;;21.61;100.00;100412.59;5036596;28;20186;-69
2023/09/18 10:18:36;;;;;;;;;;;;;;;21.33;100.00;100417.09;5027912;28;20393;-71
2023/09/18 10:21:20;;;;;;;;;;;;;;;21.40;100.00;100419.84;5033464;28;19963;-72
2023/09/18 10:24:04;;;;;;;;;;;;;;;21.48;100.00;100421.56;5032861;28;19963;-73
2023/09/18 10:26:30;;;;;;;;;;;;;;;21.25;100.00;100418.09;5028108;28;20398;-71
2023/09/18 10:28:58;;;;;;;;;;;;;;;21.50;100.00;100423.06;5031230;28;19939;-72
2023/09/18 10:31:23;;;;;;;;;;;;;;;21.48;100.00;100416.94;5033816;28;19952;-73
2023/09/18 10:33:50;;;;;;;;;;;;;;;21.44;100.00;100429.31;5027756;28;20035;-73
2023/09/18 10:36:17;;;;;;;;;;;;;;;21.34;100.00;100426.97;5033769;28;19943;-72
2023/09/18 10:38:44;;;;;;;;;;;;;;;21.11;100.00;100432.69;5029450;28;20275;-74
2023/09/18 10:41:10;;;;;;;;;;;;;;;20.95;100.00;100428.38;5033132;28;19920;-71
2023/09/18 10:43:35;;;;;;;;;;;;;;;21.04;100.00;100413.53;5029954;28;19968;-72
2023/09/18 10:46:00;;;;;;;;;;;;;;;21.24;100.00;100407.34;5034339;28;20391;-72
2023/09/18 10:48:25;;;;;;;;;;;;;;;21.64;100.00;100409.47;5027546;28;20303;-72
2023/09/18 10:50:51;;;;;;;;;;;;;;;21.97;100.00;100408.78;5026959;28;19920;-72
2023/09/18 10:53:16;;;;;;;;;;;;;;;22.57;100.00;100419.03;5029428;28;19928;-70
2023/09/18 10:55:43;;;;;;;;;;;;;;;23.09;100.00;100410.16;5023077;28;20304;-71
2023/09/18 10:58:08;;;;;;;;;;;;;;;22.72;100.00;100405.13;5031938;28;20047;-74
2023/09/18 11:00:36;;;;;;;;;;;;;;;22.28;100.00;100402.75;5038488;28;19928;-71
2023/09/18 11:03:14;;;;;;;;;;;;;;;22.99;100.00;100396.91;5029871;28;19928;-71
2023/09/18 11:05:39;;;;;;;;;;;;;;;22.83;100.00;100388.06;5033142;28;20011;-72
2023/09/18 11:08:23;;;;;;;;;;;;;;;22.28;100.00;100389.06;5027609;28;19921;-73
2023/09/18 11:11:14;;;;;;;;;;;;;;;21.75;100.00;100392.53;5029284;28;22159;-72
2023/09/18 11:13:45;;;;;;;;;;;;;;;22.26;100.00;100377.50;5031290;28;19924;-71
2023/09/18 11:16:26;;;;;;;;;;;;;;;22.24;100.00;100381.50;5029382;28;19921;-71
2023/09/18 11:18:54;;;;;;;;;;;;;;;21.62;100.00;100385.13;5026921;28;19963;-73
2023/09/18 11:21:26;;;;;;;;;;;;;;;21.38;100.00;100378.25;5027071;28;19967;-71
2023/09/18 11:23:58;;;;;;;;;;;;;;;21.41;100.00;100389.63;5026120;28;20002;-70
2023/09/18 11:26:23;;;;;;;;;;;;;;;21.45;100.00;100398.25;5033058;28;19947;-71
2023/09/18 11:28:50;;;;;;;;;;;;;;;21.30;100.00;100408.47;5034544;28;19928;-72
2023/09/18 11:31:15;;;;;;;;;;;;;;;22.30;100.00;100400.63;5032564;28;19925;-72
2023/09/18 11:33:44;;;;;;;;;;;;;;;22.24;100.00;100403.38;5038652;28;20374;-74
2023/09/18 11:36:12;;;;;;;;;;;;;;;22.53;100.00;100415.00;5030980;28;19921;-72
2023/09/18 11:38:53;;;;;;;;;;;;;;;22.54;100.00;100409.31;5041785;28;19960;-71
2023/09/18 11:41:23;;;;;;;;;;;;;;;22.73;100.00;100413.13;5031300;28;19925;-72
2023/09/18 11:43:48;;;;;;;;;;;;;;;23.00;100.00;100406.81;5027148;28;20020;-73
2023/09/18 11:46:15;;;;;;;;;;;;;;;23.47;100.00;100406.72;5032988;28;20450;-72
2023/09/18 11:48:40;;;;;;;;;;;;;;;23.56;100.00;100412.81;5049318;28;20334;-72
2023/09/18 11:51:07;;;;;;;;;;;;;;;23.50;100.00;100414.50;5028954;28;19956;-70
2023/09/18 11:53:34;;;;;;;;;;;;;;;23.58;100.00;100406.03;5029967;28;19971;-74
2023/09/18 11:55:59;;;;;;;;;;;;;;;23.96;100.00;100399.78;5033155;28;19924;-73
2023/09/18 11:58:24;;;;;;;;;;;;;;;24.92;100.00;100406.31;5037481;28;20464;-72
2023/09/18 12:00:50;;;;;;;;;;;;;;;26.62;100.00;100394.63;5032474;28;20634;-71
2023/09/18 12:03:25;;;;;;;;;;;;;;;27.01;94.57;100387.88;5046458;28;19924;-72
2023/09/18 12:05:58;;;;;;;;;;;;;;;24.85;92.33;100404.44;5038042;28;19921;-73
2023/09/18 12:08:26;;;;;;;;;;;;;;;23.14;100.00;100386.53;5033654;28;19921;-70
2023/09/18 12:10:51;;;;;;;;;;;;;;;22.87;100.00;100393.97;5047727;28;19921;-72
2023/09/18 12:13:17;;;;;;;;;;;;;;;22.69;100.00;100380.94;5036339;28;20444;-72
2023/09/18 12:15:43;;;;;;;;;;;;;;;23.42;100.00;100381.88;5039882;28;20031;-71
2023/09/18 12:18:09;;;;;;;;;;;;;;;23.11;100.00;100386.16;5033869;28;20019;-71
2023/09/18 12:20:34;;;;;;;;;;;;;;;22.99;100.00;100378.56;5045070;28;20010;-74
2023/09/18 12:22:59;;;;;;;;;;;;;;;23.14;100.00;100377.50;5037639;28;20390;-71
2023/09/18 12:25:24;;;;;;;;;;;;;;;24.23;100.00;100376.84;5033078;28;19971;-70